Time;durP1;ratioP1;P1;durP2;ratioP2;P2;SDS_P1;SDS_P2;PMS_P1;PMS_P2;Temp;Humidity;BMP_temperature;BMP_pressure;BME280_temperature;BME280_humidity;BME280_pressure;Samples;Min_cycle;Max_cycle;Signal;HPM_P1;HPM_P2
2022/05/25 00:01:11;;;;;;;6.80;4.42;;;;;;;12.35;68.17;97337.26;1691946;85;21079;-76
2022/05/25 00:03:38;;;;;;;9.35;4.50;;;;;;;12.35;68.12;97339.92;1692451;83;21012;-76
2022/05/25 00:06:07;;;;;;;6.03;4.22;;;;;;;12.30;68.32;97332.17;1691998;85;21031;-75
2022/05/25 00:08:34;;;;;;;6.33;4.45;;;;;;;12.25;68.62;97335.03;1691902;85;21040;-75
2022/05/25 00:11:00;;;;;;;9.70;4.70;;;;;;;12.28;68.82;97331.37;1692144;85;21016;-75
2022/05/25 00:13:26;;;;;;;7.20;4.22;;;;;;;12.25;68.76;97329.72;1707178;84;21089;-75
2022/05/25 00:15:53;;;;;;;5.47;4.20;;;;;;;12.23;69.11;97330.27;1709060;84;21074;-75
2022/05/25 00:18:19;;;;;;;5.25;4.28;;;;;;;12.25;68.82;97340.34;1708513;84;21023;-75
2022/05/25 00:20:45;;;;;;;7.53;4.30;;;;;;;12.21;69.07;97333.94;1709279;84;21134;-75
2022/05/25 00:23:11;;;;;;;5.42;4.03;;;;;;;12.23;69.29;97334.71;1696404;84;21119;-75
2022/05/25 00:25:40;;;;;;;5.60;4.15;;;;;;;12.22;68.70;97332.55;1691972;85;21004;-75
2022/05/25 00:28:11;;;;;;;6.75;4.15;;;;;;;12.18;69.32;97337.59;1692135;85;21028;-75
2022/05/25 00:30:39;;;;;;;5.45;3.87;;;;;;;12.24;69.33;97339.95;1692250;85;21035;-75
2022/05/25 00:33:07;;;;;;;6.53;5.08;;;;;;;12.29;68.94;97333.09;1692108;85;21080;-75
2022/05/25 00:35:37;;;;;;;6.15;3.90;;;;;;;12.29;68.87;97331.76;1708818;84;20994;-76
2022/05/25 00:38:06;;;;;;;6.03;3.90;;;;;;;12.25;69.17;97340.83;1709403;84;21063;-75
2022/05/25 00:40:39;;;;;;;10.93;5.03;;;;;;;12.27;69.12;97342.48;1709312;84;21540;-76
2022/05/25 00:43:07;;;;;;;7.95;4.75;;;;;;;12.26;69.36;97346.53;1709368;84;21436;-75
2022/05/25 00:45:43;;;;;;;10.25;5.55;;;;;;;12.28;69.44;97345.53;1704871;84;21114;-76
2022/05/25 00:48:13;;;;;;;13.20;6.12;;;;;;;12.34;69.68;97350.16;1692106;84;21093;-77
2022/05/25 00:53:25;;;;;;;9.80;5.03;;;;;;;12.40;69.51;97357.38;1692148;85;21077;-77
2022/05/25 00:55:54;;;;;;;7.37;4.50;;;;;;;12.45;69.50;97354.48;1687971;83;21084;-76
2022/05/25 00:58:21;;;;;;;11.20;4.17;;;;;;;12.41;69.44;97351.13;1686728;85;21026;-76
2022/05/25 01:00:47;;;;;;;5.97;4.87;;;;;;;12.43;70.60;97352.38;1686762;84;21053;-76
2022/05/25 01:03:14;;;;;;;8.63;4.40;;;;;;;12.43;70.39;97348.39;1684661;84;21086;-76
2022/05/25 01:05:59;;;;;;;6.17;3.90;;;;;;;12.36;71.24;97357.58;1715319;84;21085;-76
2022/05/25 01:08:29;;;;;;;5.03;4.20;;;;;;;12.28;69.88;97355.28;1715303;83;21518;-75
2022/05/25 01:10:59;;;;;;;5.00;4.20;;;;;;;12.29;70.30;97360.98;1719143;83;21437;-76
2022/05/25 01:13:35;;;;;;;8.50;4.70;;;;;;;12.28;69.86;97356.61;1720836;83;21594;-75
2022/05/25 01:16:21;;;;;;;4.97;4.40;;;;;;;12.23;69.78;97354.64;1721544;82;21016;-76
2022/05/25 01:18:51;;;;;;;6.83;4.58;;;;;;;12.14;70.10;97355.45;1721574;83;21048;-76
2022/05/25 01:21:33;;;;;;;7.67;4.90;;;;;;;12.09;70.32;97355.29;1720629;83;20995;-76
2022/05/25 01:24:23;;;;;;;6.03;4.40;;;;;;;12.08;70.26;97353.57;1721565;83;21024;-76
2022/05/25 01:27:14;;;;;;;7.95;5.17;;;;;;;12.08;70.54;97354.90;1686871;85;21033;-75
2022/05/25 01:29:45;;;;;;;8.73;5.33;;;;;;;12.10;70.68;97361.86;1719935;83;21013;-75
2022/05/25 01:32:15;;;;;;;5.22;4.40;;;;;;;12.08;70.45;97358.40;1721122;83;21051;-75
2022/05/25 01:35:08;;;;;;;7.87;4.70;;;;;;;12.09;70.44;97353.47;1720964;83;21088;-75
2022/05/25 01:37:59;;;;;;;9.75;5.12;;;;;;;12.05;70.35;97353.70;1721706;82;21000;-75
2022/05/25 01:40:44;;;;;;;7.17;5.47;;;;;;;12.02;71.21;97356.00;1721407;83;21099;-75
2022/05/25 01:43:23;;;;;;;10.80;5.53;;;;;;;12.01;70.84;97358.27;1686927;85;21098;-76
2022/05/25 01:45:53;;;;;;;7.85;5.40;;;;;;;11.98;70.61;97358.39;1719632;83;21505;-76
2022/05/25 01:48:22;;;;;;;11.15;5.62;;;;;;;11.93;70.78;97354.64;1686848;85;21012;-76
2022/05/25 01:50:58;;;;;;;9.45;6.20;;;;;;;11.87;70.91;97365.06;1721444;83;21480;-76
2022/05/25 01:53:27;;;;;;;14.00;6.62;;;;;;;11.83;71.55;97360.81;1686792;85;21378;-76
2022/05/25 01:55:57;;;;;;;8.93;5.78;;;;;;;11.84;72.73;97372.30;1743130;81;21015;-76
2022/05/25 01:58:26;;;;;;;9.45;5.03;;;;;;;11.87;72.47;97374.35;1753116;82;21031;-76
2022/05/25 02:00:59;;;;;;;12.05;5.58;;;;;;;11.88;72.92;97372.57;1753122;81;21039;-76
2022/05/25 02:06:44;;;;;;;8.20;5.08;;;;;;;11.91;73.31;97369.75;1723389;83;20985;-75
2022/05/25 02:09:19;;;;;;;6.50;4.67;;;;;;;11.91;73.31;97369.75;1689429;84;21016;-76
2022/05/25 02:11:49;;;;;;;6.33;4.42;;;;;;;11.83;73.09;97367.45;1646445;87;21050;-76
2022/05/25 02:14:37;;;;;;;7.28;4.47;;;;;;;11.82;72.47;97367.06;1686443;85;21575;-76
2022/05/25 02:17:25;;;;;;;7.62;4.17;;;;;;;11.85;72.64;97360.75;1717385;83;21090;-76
2022/05/25 02:20:10;;;;;;;6.12;4.28;;;;;;;11.86;72.47;97355.83;1717625;83;21008;-76
2022/05/25 02:22:46;;;;;;;10.48;4.30;;;;;;;11.85;72.72;97364.73;1708073;83;21118;-76
2022/05/25 02:25:22;;;;;;;7.60;4.60;;;;;;;11.83;72.37;97358.64;1687327;85;21469;-75
2022/05/25 02:27:58;;;;;;;7.53;4.45;;;;;;;11.80;72.34;97358.77;1716646;82;21064;-75
2022/05/25 02:30:27;;;;;;;5.78;4.33;;;;;;;11.77;72.97;97358.89;1699685;84;21001;-76
2022/05/25 02:33:03;;;;;;;5.33;3.87;;;;;;;11.74;74.14;97363.87;1699879;84;21031;-76
2022/05/25 02:35:32;;;;;;;7.20;4.10;;;;;;;11.71;72.98;97370.66;1699336;84;21025;-76
2022/05/25 02:38:02;;;;;;;9.70;4.65;;;;;;;11.71;73.66;97375.98;1699751;84;21509;-75
2022/05/25 02:40:30;;;;;;;6.17;4.10;;;;;;;11.69;72.98;97373.38;1699804;84;21080;-76
2022/05/25 02:42:56;;;;;;;9.43;4.42;;;;;;;11.69;73.01;97378.69;1699752;84;21128;-76
2022/05/25 02:45:22;;;;;;;10.43;4.50;;;;;;;11.65;72.60;97382.86;1699795;84;21467;-75
2022/05/25 02:47:48;;;;;;;8.48;4.65;;;;;;;11.61;72.85;97387.45;1699739;84;21000;-75
2022/05/25 02:50:14;;;;;;;7.47;4.72;;;;;;;11.60;73.24;97389.70;1699640;84;21059;-75
2022/05/25 02:52:41;;;;;;;6.22;4.83;;;;;;;11.59;74.19;97396.80;1699722;84;21086;-75
2022/05/25 02:55:08;;;;;;;6.22;4.62;;;;;;;11.57;73.87;97401.77;1697003;83;21031;-75
2022/05/25 02:57:35;;;;;;;7.33;5.50;;;;;;;11.52;73.31;97399.78;1686543;85;21000;-75
2022/05/25 03:00:02;;;;;;;9.65;5.30;;;;;;;11.54;75.01;97402.77;1695200;84;21474;-75
2022/05/25 03:02:29;;;;;;;8.23;5.47;;;;;;;11.47;74.93;97414.59;1698558;84;21452;-75
2022/05/25 03:04:55;;;;;;;9.28;5.37;;;;;;;11.41;75.19;97408.22;1687544;83;21023;-75
2022/05/25 03:07:22;;;;;;;6.17;4.85;;;;;;;11.43;75.12;97418.30;1682944;85;21059;-75
2022/05/25 03:09:49;;;;;;;7.78;5.47;;;;;;;11.47;73.97;97415.44;1720653;83;21008;-75
2022/05/25 03:12:16;;;;;;;10.25;5.10;;;;;;;11.47;75.14;97416.76;1738807;82;21016;-75
2022/05/25 03:14:43;;;;;;;11.12;5.97;;;;;;;11.47;73.98;97424.72;1744904;82;21000;-75
2022/05/25 03:17:14;;;;;;;11.10;5.60;;;;;;;11.47;74.17;97425.20;1744813;82;21052;-75
2022/05/25 03:19:52;;;;;;;6.55;5.03;;;;;;;11.47;73.84;97419.89;1744982;82;21076;-75
2022/05/25 03:22:18;;;;;;;7.60;5.35;;;;;;;11.47;74.44;97422.55;1744963;82;21485;-75
2022/05/25 03:24:44;;;;;;;6.90;5.20;;;;;;;11.48;74.56;97426.92;1726347;82;21000;-75
2022/05/25 03:27:11;;;;;;;9.43;5.35;;;;;;;11.51;73.84;97427.25;1692156;85;21047;-75
2022/05/25 03:29:37;;;;;;;12.15;5.87;;;;;;;11.50;73.80;97418.42;1692085;85;21012;-75
2022/05/25 03:32:03;;;;;;;8.98;5.25;;;;;;;11.57;73.99;97430.97;1691864;85;21064;-75
2022/05/25 03:34:30;;;;;;;8.33;5.53;;;;;;;11.63;74.13;97422.77;1693385;84;21080;-75
2022/05/25 03:36:56;;;;;;;8.33;5.45;;;;;;;11.66;73.69;97425.75;1709171;84;21050;-75
2022/05/25 03:39:25;;;;;;;8.48;5.12;;;;;;;11.71;75.46;97425.08;1709127;84;21018;-75
2022/05/25 03:41:57;;;;;;;8.28;5.45;;;;;;;11.72;75.32;97427.64;1709245;84;21018;-74
2022/05/25 03:44:24;;;;;;;9.20;5.60;;;;;;;11.69;74.20;97423.81;1709348;84;21106;-75
2022/05/25 03:46:51;;;;;;;7.05;5.35;;;;;;;11.74;74.04;97426.26;1705501;84;21056;-74
2022/05/25 03:49:18;;;;;;;6.42;5.37;;;;;;;11.80;73.86;97425.14;1691935;85;21036;-74
2022/05/25 03:51:44;;;;;;;6.05;5.30;;;;;;;11.84;74.97;97426.73;1691934;85;21079;-75
2022/05/25 03:54:11;;;;;;;9.45;5.10;;;;;;;11.90;73.88;97430.44;1691866;85;21052;-75
2022/05/25 03:56:38;;;;;;;8.53;5.80;;;;;;;11.95;74.44;97443.05;1688298;85;21044;-76
2022/05/25 03:59:05;;;;;;;8.98;5.37;;;;;;;11.97;74.98;97442.53;1686527;85;21097;-76
2022/05/25 04:01:35;;;;;;;9.95;5.58;;;;;;;11.98;74.25;97440.72;1687024;85;21057;-75
2022/05/25 04:04:01;;;;;;;10.48;5.72;;;;;;;12.02;74.00;97437.00;1687000;85;21041;-75
2022/05/25 04:06:27;;;;;;;10.68;5.30;;;;;;;12.02;74.86;97440.98;1686504;84;21060;-75
2022/05/25 04:08:53;;;;;;;8.20;5.70;;;;;;;12.04;74.12;97440.92;1686984;85;21460;-76
2022/05/25 04:11:20;;;;;;;8.88;5.12;;;;;;;12.08;73.94;97435.42;1686943;85;21004;-76
2022/05/25 04:13:46;;;;;;;7.08;5.42;;;;;;;12.17;74.83;97438.16;1686867;85;21528;-76
2022/05/25 04:16:12;;;;;;;9.40;5.47;;;;;;;12.24;73.75;97438.71;1686419;85;21024;-76
2022/05/25 04:18:39;;;;;;;9.83;6.12;;;;;;;12.27;74.17;97432.81;1686169;85;21037;-76
2022/05/25 04:21:05;;;;;;;6.03;5.20;;;;;;;12.31;74.18;97440.63;1686841;85;21442;-76
2022/05/25 04:23:31;;;;;;;10.53;5.80;;;;;;;12.32;73.52;97433.92;1701890;84;21019;-76
2022/05/25 04:25:58;;;;;;;9.53;5.65;;;;;;;12.37;73.28;97428.41;1701888;84;21414;-76
2022/05/25 04:28:24;;;;;;;10.85;6.70;;;;;;;12.38;73.47;97435.45;1701702;84;21015;-75
2022/05/25 04:30:50;;;;;;;8.95;5.72;;;;;;;12.39;74.45;97439.36;1714979;83;21024;-75
2022/05/25 04:33:17;;;;;;;11.40;6.20;;;;;;;12.43;73.68;97433.89;1718944;83;21517;-75
2022/05/25 04:35:44;;;;;;;11.50;6.20;;;;;;;12.48;73.07;97438.52;1718464;83;21036;-75
2022/05/25 04:38:14;;;;;;;8.80;5.75;;;;;;;12.47;73.78;97438.14;1712830;82;21008;-75
2022/05/25 04:40:43;;;;;;;9.35;5.83;;;;;;;12.48;74.19;97435.41;1701795;84;21063;-75
2022/05/25 04:43:19;;;;;;;12.18;7.12;;;;;;;12.51;73.49;97433.92;1697267;84;21000;-75
2022/05/25 04:45:48;;;;;;;11.43;5.90;;;;;;;12.55;73.91;97437.32;1680445;84;21059;-75
2022/05/25 04:48:16;;;;;;;13.38;7.03;;;;;;;12.58;73.61;97450.45;1685591;83;21414;-75
2022/05/25 04:50:45;;;;;;;10.68;6.58;;;;;;;12.60;73.55;97451.26;1701777;84;21394;-75
2022/05/25 04:53:15;;;;;;;13.38;7.05;;;;;;;12.66;73.24;97462.05;1701800;84;20996;-75
2022/05/25 04:58:31;;;;;;;11.90;7.08;;;;;;;12.75;74.01;97471.41;1724345;83;21070;-75
2022/05/25 05:00:57;;;;;;;16.23;7.80;;;;;;;12.81;73.71;97471.12;1739776;82;21117;-75
2022/05/25 05:03:26;;;;;;;12.07;7.37;;;;;;;12.89;74.32;97471.63;1739629;81;21794;-76
2022/05/25 05:05:53;;;;;;;12.05;7.08;;;;;;;13.02;73.79;97478.55;1720806;83;21525;-75
2022/05/25 05:08:20;;;;;;;11.93;6.78;;;;;;;13.14;73.69;97478.42;1720785;83;21032;-76
2022/05/25 05:10:46;;;;;;;15.60;9.43;;;;;;;13.26;73.99;97481.42;1720479;83;21036;-76
2022/05/25 05:13:13;;;;;;;10.50;8.30;;;;;;;13.33;74.87;97489.03;1741087;82;21028;-76
2022/05/25 05:15:45;;;;;;;12.50;9.10;;;;;;;13.41;74.23;97496.62;1744951;82;21008;-76
2022/05/25 05:18:12;;;;;;;17.45;9.43;;;;;;;13.51;74.99;97498.41;1744953;82;21036;-76
2022/05/25 05:20:49;;;;;;;18.10;10.32;;;;;;;13.62;74.09;97503.19;1738533;82;21004;-76
2022/05/25 05:23:16;;;;;;;17.20;9.60;;;;;;;13.76;74.07;97506.97;1724230;83;21517;-75
2022/05/25 05:25:42;;;;;;;13.93;8.98;;;;;;;13.90;73.67;97502.28;1708246;84;21013;-73
2022/05/25 05:28:21;;;;;;;13.58;8.53;;;;;;;14.01;73.22;97512.38;1703683;84;21003;-74
2022/05/25 05:30:50;;;;;;;17.30;9.00;;;;;;;14.09;73.88;97509.72;1692678;83;21052;-74
2022/05/25 05:33:16;;;;;;;13.20;8.43;;;;;;;14.23;73.07;97516.98;1664828;85;21533;-74
2022/05/25 05:35:46;;;;;;;16.15;8.45;;;;;;;14.37;73.29;97513.59;1678797;85;21006;-74
2022/05/25 05:38:15;;;;;;;15.88;9.20;;;;;;;14.54;73.22;97506.97;1678993;85;21057;-74
2022/05/25 05:40:42;;;;;;;15.60;10.03;;;;;;;14.60;72.86;97509.30;1674918;84;21045;-74
2022/05/25 05:43:09;;;;;;;13.98;9.23;;;;;;;14.72;73.03;97506.45;1666075;85;21415;-74
2022/05/25 05:45:39;;;;;;;14.95;9.45;;;;;;;14.81;72.79;97517.11;1659691;85;21461;-74
2022/05/25 05:48:15;;;;;;;18.30;9.45;;;;;;;14.93;72.27;97522.25;1679262;85;21030;-75
2022/05/25 05:50:44;;;;;;;13.43;8.58;;;;;;;15.08;72.13;97517.88;1672181;85;21081;-74
2022/05/25 05:53:11;;;;;;;14.50;8.48;;;;;;;15.25;71.75;97523.61;1650523;87;21065;-74
2022/05/25 05:55:41;;;;;;;19.15;9.18;;;;;;;15.42;71.61;97519.52;1651180;85;21093;-73
2022/05/25 05:58:07;;;;;;;16.95;9.18;;;;;;;15.57;71.38;97523.56;1721453;83;21089;-73
2022/05/25 06:00:33;;;;;;;13.55;9.20;;;;;;;15.71;70.96;97522.30;1717497;83;21469;-73
2022/05/25 06:03:00;;;;;;;15.55;8.53;;;;;;;15.84;70.63;97521.12;1722171;82;21052;-74
2022/05/25 06:05:26;;;;;;;17.55;9.85;;;;;;;15.97;70.38;97521.75;1686695;85;21492;-73
2022/05/25 06:07:52;;;;;;;14.65;8.80;;;;;;;16.13;70.21;97529.73;1721355;83;21043;-73
2022/05/25 06:10:19;;;;;;;18.82;10.20;;;;;;;16.28;69.75;97538.63;1683050;85;21474;-73
2022/05/25 06:12:47;;;;;;;17.02;9.90;;;;;;;16.42;69.40;97541.81;1720083;83;21048;-73
2022/05/25 06:20:49;;;;;;;15.32;8.30;;;;;;;17.00;68.26;97548.99;1710736;82;21050;-73
2022/05/25 06:23:15;;;;;;;17.55;8.03;;;;;;;17.17;67.65;97543.06;1700111;82;21005;-73
2022/05/25 06:25:42;;;;;;;15.08;8.25;;;;;;;17.36;67.40;97550.30;1665933;85;21088;-73
2022/05/25 06:28:08;;;;;;;14.23;8.48;;;;;;;17.55;66.36;97550.45;1702985;82;21059;-73
2022/05/25 06:30:34;;;;;;;11.68;7.67;;;;;;;17.67;66.00;97551.46;1699412;83;21404;-73
2022/05/25 06:33:03;;;;;;;15.15;8.18;;;;;;;17.80;64.82;97555.52;1708838;83;21536;-73
2022/05/25 06:35:29;;;;;;;14.78;7.30;;;;;;;17.98;65.10;97549.91;1712158;82;21058;-73
2022/05/25 06:37:55;;;;;;;11.15;7.30;;;;;;;18.22;65.01;97551.43;1700556;83;20984;-73
2022/05/25 06:40:22;;;;;;;11.83;7.58;;;;;;;18.38;62.94;97553.92;1700152;83;21036;-73
2022/05/25 06:42:48;;;;;;;10.38;7.67;;;;;;;18.49;63.12;97557.22;1692834;83;20992;-73
2022/05/25 06:45:15;;;;;;;9.38;6.55;;;;;;;18.70;63.27;97544.61;1706748;82;20972;-78
2022/05/25 06:47:41;;;;;;;9.65;6.33;;;;;;;18.98;63.05;97545.34;1674562;85;20993;-81
2022/05/25 06:50:08;;;;;;;11.78;6.05;;;;;;;19.11;61.80;97542.16;1720552;82;21073;-82
2022/05/25 06:52:34;;;;;;;9.20;6.20;;;;;;;19.24;61.04;97531.41;1692352;82;21047;-80
2022/05/25 06:55:01;;;;;;;9.03;6.17;;;;;;;19.35;60.21;97517.68;1725157;82;21646;-77
2022/05/25 06:57:27;;;;;;;9.10;6.20;;;;;;;19.45;60.38;97516.03;1736111;82;21005;-75
2022/05/25 06:59:55;;;;;;;9.05;6.67;;;;;;;19.52;59.11;97521.30;1744628;82;21052;-77
2022/05/25 07:02:23;;;;;;;10.60;6.92;;;;;;;19.49;57.64;97521.55;1744624;82;21048;-77
2022/05/25 07:04:49;;;;;;;19.87;7.55;;;;;;;19.51;58.99;97511.53;1744331;81;21406;-78
2022/05/25 07:07:16;;;;;;;11.55;6.92;;;;;;;19.63;59.19;97504.86;1700785;83;21037;-77
2022/05/25 07:09:43;;;;;;;11.63;6.70;;;;;;;19.76;59.07;97491.34;1691776;85;21056;-78
2022/05/25 07:12:09;;;;;;;10.32;6.67;;;;;;;19.92;59.16;97494.61;1700559;84;21005;-78
2022/05/25 07:14:37;;;;;;;12.05;6.85;;;;;;;20.00;58.75;97481.08;1687292;85;21048;-78
2022/05/25 07:17:04;;;;;;;15.45;6.25;;;;;;;20.10;58.76;97475.36;1662202;85;21534;-78
2022/05/25 07:19:30;;;;;;;12.88;6.92;;;;;;;20.21;58.57;97474.53;1657500;86;21052;-78
2022/05/25 07:21:56;;;;;;;15.90;10.03;;;;;;;20.31;58.54;97469.31;1658032;86;21040;-77
2022/05/25 07:24:23;;;;;;;12.98;7.10;;;;;;;20.37;58.09;97463.44;1679429;85;21038;-77
2022/05/25 07:26:49;;;;;;;13.30;7.62;;;;;;;20.53;57.66;97453.67;1687465;85;21057;-75
2022/05/25 07:29:15;;;;;;;13.75;6.45;;;;;;;20.65;57.81;97457.70;1687707;85;21045;-75
2022/05/25 07:31:47;;;;;;;9.45;6.05;;;;;;;20.84;57.83;97450.34;1668531;85;21466;-77
2022/05/25 07:34:26;;;;;;;9.55;5.97;;;;;;;21.00;57.38;97453.19;1677621;85;21344;-80
2022/05/25 07:36:56;;;;;;;11.35;5.80;;;;;;;21.19;57.36;97444.45;1670227;85;21016;-80
2022/05/25 07:39:26;;;;;;;9.78;6.17;;;;;;;21.35;56.28;97445.39;1687329;85;20988;-79
2022/05/25 07:41:56;;;;;;;17.17;11.55;;;;;;;21.37;56.81;97440.72;1683969;85;21061;-79
2022/05/25 07:44:31;;;;;;;11.60;8.05;;;;;;;21.58;56.72;97431.81;1687705;84;21037;-78
2022/05/25 07:47:00;;;;;;;14.38;7.08;;;;;;;21.79;56.28;97426.99;1674468;85;20978;-79
2022/05/25 07:49:26;;;;;;;11.83;6.25;;;;;;;21.94;55.86;97407.27;1669113;85;21115;-79
2022/05/25 07:51:54;;;;;;;13.50;6.10;;;;;;;22.08;55.51;97405.59;1677070;85;21028;-79
2022/05/25 07:54:21;;;;;;;15.25;8.50;;;;;;;22.25;54.26;97408.69;1686839;85;22136;-79
2022/05/25 07:56:48;;;;;;;10.30;6.35;;;;;;;22.25;54.26;97408.69;1676827;84;21068;-80
2022/05/25 07:59:16;;;;;;;10.63;6.15;;;;;;;22.36;54.37;97409.94;1678457;85;21033;-80
2022/05/25 08:07:20;;;;;;;14.73;6.20;;;;;;;22.74;53.00;97402.16;1675516;85;21060;-81
2022/05/25 08:09:47;;;;;;;16.05;5.62;;;;;;;22.85;52.48;97407.09;1683173;85;21509;-81
2022/05/25 08:12:15;;;;;;;9.23;5.97;;;;;;;22.84;52.27;97395.94;1687452;85;21072;-81
2022/05/25 08:14:42;;;;;;;10.50;5.42;;;;;;;22.99;51.88;97403.13;1686819;85;21049;-79
2022/05/25 08:17:08;;;;;;;12.75;6.40;;;;;;;22.97;51.30;97401.08;1687514;85;21399;-81
2022/05/25 08:19:35;;;;;;;9.90;5.55;;;;;;;23.10;51.58;97393.58;1687169;85;21002;-80
2022/05/25 08:22:02;;;;;;;10.45;5.22;;;;;;;23.14;51.04;97402.25;1687337;85;21046;-82
2022/05/25 08:24:32;;;;;;;13.60;5.95;;;;;;;23.16;50.45;97414.63;1687281;85;21028;-85
2022/05/25 08:26:59;;;;;;;8.73;5.72;;;;;;;23.19;50.81;97410.30;1687342;85;21096;-86
2022/05/25 08:29:35;;;;;;;18.85;11.22;;;;;;;23.31;50.86;97416.92;1687562;85;21012;-84
2022/05/25 08:32:01;;;;;;;8.13;5.75;;;;;;;23.44;50.82;97410.78;1667164;85;21111;-81
2022/05/25 08:34:28;;;;;;;7.20;5.37;;;;;;;23.59;50.77;97412.55;1659698;86;20996;-85
2022/05/25 08:36:54;;;;;;;7.22;5.25;;;;;;;23.70;50.24;97418.33;1667652;85;21257;-81
2022/05/25 08:39:21;;;;;;;9.03;6.65;;;;;;;23.75;49.88;97424.64;1664319;84;20973;-83
2022/05/25 08:41:50;;;;;;;57.05;36.48;;;;;;;23.86;50.11;97427.70;1674718;84;21008;-81
2022/05/25 08:44:19;;;;;;;12.65;8.13;;;;;;;23.92;50.12;97433.89;1688724;84;20996;-86
2022/05/25 08:46:46;;;;;;;13.65;5.85;;;;;;;24.03;49.86;97436.94;1690396;84;21426;-87
2022/05/25 08:49:18;;;;;;;8.83;4.78;;;;;;;24.07;49.83;97437.02;1685502;85;20989;-83
2022/05/25 08:51:47;;;;;;;13.25;5.58;;;;;;;24.20;49.18;97435.38;1681305;84;21049;-84
2022/05/25 08:54:17;;;;;;;7.95;4.58;;;;;;;24.34;49.66;97433.21;1687125;85;20996;-84
2022/05/25 08:56:47;;;;;;;11.05;5.10;;;;;;;24.45;49.42;97436.25;1666530;84;21393;-86
2022/05/25 08:59:32;;;;;;;8.48;5.10;;;;;;;24.41;49.21;97436.19;1685357;85;21073;-82
2022/05/25 09:02:03;;;;;;;9.88;4.70;;;;;;;24.37;48.24;97436.47;1638230;87;21140;-83
2022/05/25 09:04:48;;;;;;;10.13;5.47;;;;;;;24.19;48.28;97445.86;1615980;85;21047;-85
2022/05/25 09:07:27;;;;;;;7.67;6.87;;;;;;;24.20;48.73;97442.66;1684799;84;21104;-84
2022/05/25 09:09:54;;;;;;;8.78;6.20;;;;;;;24.32;48.94;97441.97;1687502;85;21073;-84
2022/05/25 09:12:33;;;;;;;6.90;4.00;;;;;;;24.19;48.22;97447.21;1688098;85;21044;-84
2022/05/25 09:15:12;;;;;;;8.58;5.05;;;;;;;24.09;46.99;97449.92;1688002;85;21033;-84
2022/05/25 09:17:44;;;;;;;8.90;4.50;;;;;;;24.09;47.91;97450.44;1684833;85;21465;-84
2022/05/25 09:20:15;;;;;;;9.08;5.22;;;;;;;24.02;47.83;97451.97;1684132;85;21052;-84
2022/05/25 09:22:42;;;;;;;6.47;4.60;;;;;;;23.97;48.23;97452.41;1660040;85;21556;-84
2022/05/25 09:25:14;;;;;;;14.50;9.15;;;;;;;23.98;48.42;97452.77;1686451;85;21008;-84
2022/05/25 09:27:47;;;;;;;8.13;4.95;;;;;;;23.95;48.56;97453.91;1688252;85;21032;-79
2022/05/25 09:30:15;;;;;;;7.87;5.43;;;;;;;23.93;48.78;97442.38;1686911;85;21119;-79
2022/05/25 09:33:06;;;;;;;9.50;5.75;;;;;;;24.04;48.63;97440.52;1688207;85;21494;-79
2022/05/25 09:35:39;;;;;;;7.25;5.35;;;;;;;24.11;48.93;97435.77;1687936;85;21139;-79
2022/05/25 09:38:14;;;;;;;27.67;5.03;;;;;;;24.18;48.64;97439.23;1690247;85;21056;-79
2022/05/25 09:40:47;;;;;;;11.78;5.50;;;;;;;24.21;48.71;97437.59;1685139;85;21048;-80
2022/05/25 09:43:20;;;;;;;6.42;4.35;;;;;;;24.33;48.47;97430.16;1659773;85;21007;-80
2022/05/25 09:46:05;;;;;;;7.03;5.12;;;;;;;24.45;48.71;97438.44;1671724;85;21033;-79
2022/05/25 09:48:35;;;;;;;10.20;5.42;;;;;;;24.67;46.92;97435.03;1659860;85;21458;-79
2022/05/25 09:51:22;;;;;;;9.68;4.45;;;;;;;24.77;47.34;97441.26;1659240;86;21124;-79
2022/05/25 09:53:55;;;;;;;6.60;4.12;;;;;;;24.79;45.07;97437.05;1659548;86;21062;-79
2022/05/25 09:56:31;;;;;;;8.10;4.92;;;;;;;24.88;46.62;97431.25;1665306;85;21013;-79
2022/05/25 09:59:01;;;;;;;5.85;4.40;;;;;;;25.07;46.81;97440.30;1655576;84;21033;-78
2022/05/25 10:01:43;;;;;;;8.58;5.65;;;;;;;25.22;45.83;97434.70;1667488;84;21009;-79
2022/05/25 10:04:13;;;;;;;6.85;5.25;;;;;;;25.29;45.71;97430.88;1677146;85;21009;-79
2022/05/25 10:06:52;;;;;;;8.75;6.75;;;;;;;25.34;45.12;97431.77;1670202;86;21045;-79
2022/05/25 10:09:28;;;;;;;16.60;5.55;;;;;;;25.43;45.17;97424.06;1676911;86;21030;-80
2022/05/25 10:12:00;;;;;;;88.27;12.03;;;;;;;25.64;45.40;97417.50;1694273;84;21104;-79
2022/05/25 10:14:33;;;;;;;16.93;5.90;;;;;;;25.72;44.89;97414.87;1691038;84;21125;-80
2022/05/25 10:17:12;;;;;;;9.20;4.90;;;;;;;25.70;45.19;97420.45;1676961;84;21053;-79
2022/05/25 10:19:48;;;;;;;33.92;7.05;;;;;;;25.78;45.22;97421.02;1676825;86;21022;-79
2022/05/25 10:22:35;;;;;;;9.23;5.00;;;;;;;25.87;45.34;97423.81;1692132;84;21091;-80
2022/05/25 10:25:11;;;;;;;10.08;4.45;;;;;;;25.96;44.83;97424.23;1649497;86;21482;-79
2022/05/25 10:27:44;;;;;;;24.35;4.90;;;;;;;25.99;44.79;97415.75;1648769;86;21031;-80
2022/05/25 10:38:44;;;;;;;6.80;5.05;;;;;;;26.43;44.47;97397.73;1676888;86;21045;-79
2022/05/25 10:44:06;;;;;;;13.80;9.15;;;;;;;27.82;42.04;97387.11;1677163;84;21017;-79
2022/05/25 10:46:33;;;;;;;10.50;6.50;;;;;;;28.80;41.41;97388.44;1707977;84;21012;-80
2022/05/25 10:49:31;;;;;;;15.25;10.90;;;;;;;29.80;39.97;97387.36;1701217;84;21009;-80
2022/05/25 10:52:01;;;;;;;6.40;4.22;;;;;;;30.58;37.80;97384.92;1650102;84;21514;-80
2022/05/25 10:54:52;;;;;;;8.73;3.85;;;;;;;31.18;35.07;97383.48;1649929;84;21017;-79
2022/05/25 10:57:38;;;;;;;7.00;4.00;;;;;;;31.63;33.90;97386.61;1659821;84;21057;-80
2022/05/25 11:00:20;;;;;;;9.15;4.20;;;;;;;32.31;34.57;97378.47;1658312;85;21597;-80
2022/05/25 11:02:59;;;;;;;4.70;3.95;;;;;;;32.97;33.16;97379.06;1656809;85;21076;-79
2022/05/25 11:05:59;;;;;;;6.62;4.30;;;;;;;33.35;32.24;97381.84;1672816;85;21511;-80
2022/05/25 11:08:48;;;;;;;8.00;4.75;;;;;;;34.00;31.61;97374.13;1671317;85;21035;-80
2022/05/25 11:11:23;;;;;;;9.55;4.92;;;;;;;34.39;31.11;97371.05;1686254;85;21078;-77
2022/05/25 11:14:08;;;;;;;19.80;17.95;;;;;;;34.87;29.65;97383.63;1687798;84;20997;-78
2022/05/25 11:16:38;;;;;;;9.20;4.60;;;;;;;35.03;29.21;97377.31;1676384;85;21010;-78
2022/05/25 11:19:23;;;;;;;5.17;4.62;;;;;;;35.48;29.30;97382.51;1687629;85;21020;-81
2022/05/25 11:22:22;;;;;;;31.90;6.22;;;;;;;35.62;28.89;97378.63;1627426;87;21073;-78
2022/05/25 11:25:01;;;;;;;7.87;4.20;;;;;;;35.81;28.13;97384.23;1644688;85;21043;-78
2022/05/25 11:27:40;;;;;;;18.50;5.33;;;;;;;36.13;27.79;97375.06;1685152;85;20990;-80
2022/05/25 11:30:25;;;;;;;35.35;6.72;;;;;;;36.31;27.11;97369.62;1653712;85;21047;-78
2022/05/25 11:33:01;;;;;;;75.75;9.33;;;;;;;36.62;27.14;97374.39;1681139;85;21542;-79
2022/05/25 11:35:44;;;;;;;16.25;4.83;;;;;;;36.93;26.13;97368.42;1676290;85;21000;-78
2022/05/25 11:38:21;;;;;;;;;;;;;;;36.69;25.06;97360.85;1670018;85;21001;-78
2022/05/25 11:40:57;;;;;;;15.75;4.90;;;;;;;36.98;25.93;97361.66;1684104;85;20104;-78
2022/05/25 11:43:39;;;;;;;7.72;4.08;;;;;;;37.24;25.20;97363.81;1687395;85;21017;-79
2022/05/25 11:46:34;;;;;;;8.38;4.35;;;;;;;37.38;24.91;97361.70;1687634;85;21064;-78
2022/05/25 11:49:15;;;;;;;10.28;4.45;;;;;;;37.63;24.30;97370.39;1680079;85;21468;-78
2022/05/25 11:51:45;;;;;;;11.05;4.47;;;;;;;37.97;24.03;97358.25;1666720;85;21422;-78
2022/05/25 11:54:38;;;;;;;10.30;4.15;;;;;;;37.80;23.35;97358.11;1659279;85;21445;-78
2022/05/25 11:57:25;;;;;;;23.38;6.10;;;;;;;37.43;22.92;97360.98;1660044;86;21019;-78
2022/05/25 12:00:30;;;;;;;7.17;4.03;;;;;;;37.63;24.03;97355.19;1675763;85;21524;-78
2022/05/25 12:03:03;;;;;;;19.80;5.58;;;;;;;37.79;23.49;97353.66;1687704;85;21040;-78
2022/05/25 12:05:36;;;;;;;83.50;65.50;;;;;;;37.89;23.78;97344.77;1686129;85;21434;-78
2022/05/25 12:08:18;;;;;;;137.85;17.37;;;;;;;38.01;23.32;97348.40;1681703;85;21481;-78
2022/05/25 12:10:47;;;;;;;23.50;5.47;;;;;;;38.42;23.56;97340.77;1675514;85;20997;-79
2022/05/25 12:13:29;;;;;;;73.78;9.88;;;;;;;38.47;21.76;97338.12;1659510;85;20977;-79
2022/05/25 12:16:05;;;;;;;47.63;7.43;;;;;;;38.15;22.83;97335.19;1654683;86;21055;-74
2022/05/25 12:18:38;;;;;;;11.22;4.17;;;;;;;38.43;22.68;97335.53;1692080;85;21004;-75
2022/05/25 12:21:14;;;;;;;233.68;21.17;;;;;;;38.33;21.42;97340.84;1724073;81;20988;-75